createdAt,value
2017-05-18T00:00:20.946Z,0
2017-05-18T00:01:43.494Z,0
2017-05-18T00:03:05.064Z,0
2017-05-18T00:04:27.523Z,0
2017-05-18T00:05:49.047Z,0
2017-05-18T00:07:10.251Z,0
2017-05-18T00:08:32.086Z,0
2017-05-18T00:09:53.908Z,0
2017-05-18T00:11:15.758Z,0
2017-05-18T00:12:37.598Z,0
2017-05-18T00:13:59.118Z,0
2017-05-18T00:15:21.273Z,0
2017-05-18T00:16:43.418Z,0
2017-05-18T00:18:05.878Z,0
2017-05-18T00:19:27.410Z,0
2017-05-18T00:20:49.908Z,0
2017-05-18T00:22:11.418Z,0
2017-05-18T00:23:32.968Z,0
2017-05-18T00:24:54.800Z,0
2017-05-18T00:26:16.928Z,0
2017-05-18T00:27:38.758Z,0
2017-05-18T00:29:00.695Z,0
2017-05-18T00:30:23.207Z,0
2017-05-18T00:31:45.090Z,0
2017-05-18T00:33:06.934Z,0
2017-05-18T00:34:28.782Z,0
2017-05-18T00:35:50.630Z,0
2017-05-18T00:37:13.097Z,0
2017-05-18T00:38:34.669Z,0
2017-05-18T00:39:57.130Z,0
2017-05-18T00:41:18.727Z,0
2017-05-18T00:42:40.870Z,0
2017-05-18T00:44:03.073Z,0
2017-05-18T00:45:25.228Z,0
2017-05-18T00:46:47.118Z,0
2017-05-18T00:48:09.040Z,0
2017-05-18T00:49:30.640Z,0
2017-05-18T00:50:51.843Z,0
2017-05-18T00:52:13.117Z,0
2017-05-18T00:53:35.703Z,0
2017-05-18T00:54:57.578Z,0
2017-05-18T00:56:19.749Z,0
2017-05-18T00:57:41.279Z,0
2017-05-18T00:59:03.467Z,0
2017-05-18T01:00:25.607Z,0
2017-05-18T01:01:47.571Z,0
2017-05-18T01:03:10.079Z,0
2017-05-18T01:04:31.544Z,0
2017-05-18T01:05:53.049Z,0
2017-05-18T01:07:14.890Z,0
2017-05-18T01:08:37.210Z,0
2017-05-18T01:09:59.846Z,0
2017-05-18T01:11:21.745Z,0
2017-05-18T01:12:43.279Z,0
2017-05-18T01:14:05.815Z,0
2017-05-18T01:15:27.939Z,0
2017-05-18T01:16:50.088Z,0
2017-05-18T01:18:12.238Z,0
2017-05-18T01:19:34.732Z,0
2017-05-18T01:20:57.217Z,0
2017-05-18T01:22:18.729Z,0
2017-05-18T01:23:39.939Z,0
2017-05-18T01:25:01.473Z,0
2017-05-18T01:26:23.598Z,0
2017-05-18T01:27:45.752Z,0
2017-05-18T01:29:08.327Z,0
2017-05-18T01:30:30.490Z,0
2017-05-18T01:31:52.681Z,0
2017-05-18T01:33:14.536Z,0
2017-05-18T01:34:36.709Z,0
2017-05-18T01:35:58.873Z,0
2017-05-18T01:37:21.009Z,0
2017-05-18T01:38:42.850Z,0
2017-05-18T01:40:04.710Z,0
2017-05-18T01:41:26.630Z,0
2017-05-18T01:42:48.399Z,0
2017-05-18T01:44:09.933Z,0
2017-05-18T01:45:32.148Z,0
2017-05-18T01:46:53.988Z,0
2017-05-18T01:48:16.318Z,0
2017-05-18T01:49:37.839Z,0
2017-05-18T01:50:59.377Z,0
2017-05-18T01:52:21.279Z,0
2017-05-18T01:53:43.422Z,0
2017-05-18T01:55:05.919Z,0
2017-05-18T01:56:27.751Z,0
2017-05-18T01:57:50.065Z,0
2017-05-18T01:59:12.198Z,0
2017-05-18T02:00:34.028Z,0
2017-05-18T02:01:56.220Z,0
2017-05-18T02:03:18.818Z,0
2017-05-18T02:04:40.408Z,0
2017-05-18T02:06:02.234Z,0
2017-05-18T02:07:23.734Z,0
2017-05-18T02:08:45.561Z,0
2017-05-18T02:10:08.018Z,0
2017-05-18T02:11:30.483Z,0
2017-05-18T02:12:52.316Z,0
2017-05-18T02:14:13.839Z,0
2017-05-18T02:15:36.029Z,0
2017-05-18T02:16:57.557Z,0
2017-05-18T02:18:19.095Z,0
2017-05-18T02:19:40.030Z,0
2017-05-18T02:21:02.509Z,0
2017-05-18T02:22:24.398Z,0
2017-05-18T02:23:46.217Z,0
2017-05-18T02:25:08.055Z,0
2017-05-18T02:26:29.619Z,0
2017-05-18T02:27:52.160Z,0
2017-05-18T02:29:14.017Z,0
2017-05-18T02:30:35.578Z,0
2017-05-18T02:31:57.396Z,4
2017-05-18T02:33:19.271Z,4
2017-05-18T02:34:41.437Z,0
2017-05-18T02:36:02.952Z,0
2017-05-18T02:37:25.449Z,4
2017-05-18T02:38:47.362Z,4
2017-05-18T02:40:09.250Z,0
2017-05-18T02:41:31.096Z,4
2017-05-18T02:42:53.190Z,8
2017-05-18T02:44:15.046Z,4
2017-05-18T02:45:36.552Z,4
2017-05-18T02:46:58.418Z,8
2017-05-18T02:48:21.268Z,12
2017-05-18T02:49:43.259Z,8
2017-05-18T02:51:05.420Z,16
2017-05-18T02:52:27.618Z,16
2017-05-18T02:53:49.759Z,16
2017-05-18T02:55:11.377Z,20
2017-05-18T02:56:33.573Z,28
2017-05-18T02:57:55.291Z,32
2017-05-18T02:59:17.741Z,40
2017-05-18T03:00:39.569Z,44
2017-05-18T03:02:02.039Z,52
2017-05-18T03:03:23.889Z,60
2017-05-18T03:04:45.425Z,76
2017-05-18T03:06:07.258Z,84
2017-05-18T03:07:29.158Z,96
2017-05-18T03:08:50.686Z,112
2017-05-18T03:10:13.167Z,132
2017-05-18T03:11:35.069Z,152
2017-05-18T03:12:57.559Z,180
2017-05-18T03:14:19.750Z,204
2017-05-18T03:15:41.888Z,228
2017-05-18T03:17:03.796Z,256
2017-05-18T03:18:25.998Z,284
2017-05-18T03:19:47.564Z,324
2017-05-18T03:21:10.139Z,380
2017-05-18T03:22:31.652Z,444
2017-05-18T03:23:54.230Z,512
2017-05-18T03:25:15.908Z,568
2017-05-18T03:26:38.067Z,620
2017-05-18T03:28:00.218Z,680
2017-05-18T03:29:21.738Z,736
2017-05-18T03:30:43.270Z,800
2017-05-18T03:32:05.477Z,876
2017-05-18T03:33:27.409Z,960
2017-05-18T03:34:49.580Z,1052
2017-05-18T03:36:11.559Z,1156
2017-05-18T03:37:33.063Z,1272
2017-05-18T03:38:54.900Z,1404
2017-05-18T03:40:17.057Z,1548
2017-05-18T03:41:39.314Z,1688
2017-05-18T03:43:01.396Z,1804
2017-05-18T03:44:22.666Z,1916
2017-05-18T03:45:44.829Z,2056
2017-05-18T03:47:06.978Z,2212
2017-05-18T03:48:28.803Z,2384
2017-05-18T03:49:51.277Z,2548
2017-05-18T03:51:12.889Z,2704
2017-05-18T03:52:34.753Z,2840
2017-05-18T03:53:56.880Z,2968
2017-05-18T03:55:19.111Z,3120
2017-05-18T03:56:40.939Z,3284
2017-05-18T03:58:02.458Z,3448
2017-05-18T03:59:24.718Z,3620
2017-05-18T04:00:46.561Z,3800
2017-05-18T04:02:08.088Z,3980
2017-05-18T04:03:30.421Z,4144
2017-05-18T04:04:52.192Z,4324
2017-05-18T04:06:13.856Z,4524
2017-05-18T04:07:36.115Z,4736
2017-05-18T04:08:58.282Z,4932
2017-05-18T04:10:20.490Z,5124
2017-05-18T04:11:42.324Z,5316
2017-05-18T04:13:04.168Z,5436
2017-05-18T04:14:25.420Z,5536
2017-05-18T04:15:47.238Z,5708
2017-05-18T04:17:08.749Z,5824
2017-05-18T04:18:30.648Z,5996
2017-05-18T04:19:52.913Z,6140
2017-05-18T04:21:15.478Z,6260
2017-05-18T04:22:37.328Z,6388
2017-05-18T04:23:59.173Z,6484
2017-05-18T04:25:20.381Z,6568
2017-05-18T04:26:42.836Z,6684
2017-05-18T04:28:04.388Z,6796
2017-05-18T04:29:26.855Z,6876
2017-05-18T04:30:49.016Z,6952
2017-05-18T04:32:11.571Z,6988
2017-05-18T04:33:33.749Z,6972
2017-05-18T04:34:55.901Z,6932
2017-05-18T04:36:18.388Z,6904
2017-05-18T04:37:40.578Z,7008
2017-05-18T04:39:02.409Z,7172
2017-05-18T04:40:23.922Z,7340
2017-05-18T04:41:45.774Z,7416
2017-05-18T04:43:08.236Z,7544
2017-05-18T04:44:30.117Z,7688
2017-05-18T04:45:51.647Z,7896
2017-05-18T04:47:14.061Z,8064
2017-05-18T04:48:36.217Z,8152
2017-05-18T04:49:57.750Z,8204
2017-05-18T04:51:19.272Z,8408
2017-05-18T04:52:41.427Z,8700
2017-05-18T04:54:03.953Z,8880
2017-05-18T04:55:26.129Z,9200
2017-05-18T04:56:48.331Z,9488
2017-05-18T04:58:10.802Z,10524
2017-05-18T04:59:33.248Z,13996
2017-05-18T05:00:55.089Z,23808
2017-05-18T05:02:16.920Z,26784
2017-05-18T05:03:38.451Z,30336
2017-05-18T05:05:00.958Z,27168
2017-05-18T05:06:22.814Z,29824
2017-05-18T05:07:44.989Z,28928
2017-05-18T05:09:06.239Z,28128
2017-05-18T05:10:28.448Z,26592
2017-05-18T05:11:50.603Z,22176
2017-05-18T05:13:12.126Z,26368
2017-05-18T05:14:33.978Z,25280
2017-05-18T05:15:56.487Z,18560
2017-05-18T05:17:18.006Z,17152
2017-05-18T05:18:39.878Z,19648
2017-05-18T05:20:02.097Z,17920
2017-05-18T05:21:24.880Z,27744
2017-05-18T05:22:46.791Z,29152
2017-05-18T05:24:08.969Z,34208
2017-05-18T05:25:30.647Z,34304
2017-05-18T05:26:52.648Z,31680
2017-05-18T05:28:15.127Z,33824
2017-05-18T05:29:36.644Z,33920
2017-05-18T05:30:58.200Z,31808
2017-05-18T05:32:20.619Z,33152
2017-05-18T05:33:42.785Z,36160
2017-05-18T05:35:04.649Z,38688
2017-05-18T05:36:26.938Z,34368
2017-05-18T05:37:49.757Z,25024
2017-05-18T05:39:11.628Z,18912
2017-05-18T05:40:33.489Z,17472
2017-05-18T05:41:55.018Z,18304
2017-05-18T05:43:17.519Z,27584
2017-05-18T05:44:39.121Z,28160
2017-05-18T05:46:01.289Z,19456
2017-05-18T05:47:23.128Z,15504
2017-05-18T05:48:45.280Z,15640
2017-05-18T05:50:07.754Z,21536
2017-05-18T05:51:29.946Z,31392
2017-05-18T05:52:51.802Z,35744
2017-05-18T05:54:14.308Z,45504
2017-05-18T05:55:35.908Z,55776
2017-05-18T05:56:58.102Z,54656
2017-05-18T05:58:20.036Z,52736
2017-05-18T05:59:42.124Z,48608
2017-05-18T06:01:04.609Z,43424
2017-05-18T06:02:26.783Z,47744
2017-05-18T06:03:48.009Z,49696
2017-05-18T06:05:10.581Z,47488
2017-05-18T06:06:31.472Z,45600
2017-05-18T06:07:53.988Z,46304
2017-05-18T06:09:15.909Z,43072
2017-05-18T06:10:38.700Z,41440
2017-05-18T06:12:01.184Z,45024
2017-05-18T06:13:23.149Z,50688
2017-05-18T06:14:45.329Z,53312
2017-05-18T06:16:07.806Z,39296
2017-05-18T06:17:29.655Z,34432
2017-05-18T06:18:50.881Z,38656
2017-05-18T06:20:12.739Z,31328
2017-05-18T06:21:35.628Z,30624
2017-05-18T06:22:57.508Z,22272
2017-05-18T06:24:19.137Z,38368
2017-05-18T06:25:40.803Z,54208
2017-05-18T06:27:02.973Z,36256
2017-05-18T06:28:25.263Z,49792
2017-05-18T06:29:48.108Z,49600
2017-05-18T06:31:09.427Z,56064
2017-05-18T06:32:31.580Z,58080
2017-05-18T06:33:53.441Z,54688
2017-05-18T06:35:15.617Z,53248
2017-05-18T06:36:37.229Z,53216
2017-05-18T06:38:00.019Z,56032
2017-05-18T06:39:21.265Z,56384
2017-05-18T06:40:43.247Z,50944
2017-05-18T06:42:05.743Z,40256
2017-05-18T06:43:27.306Z,46944
2017-05-18T06:44:49.486Z,45952
2017-05-18T06:46:11.346Z,45376
2017-05-18T06:47:32.898Z,46784
2017-05-18T06:48:55.637Z,41696
2017-05-18T06:50:17.502Z,46272
2017-05-18T06:51:39.034Z,46976
2017-05-18T06:53:01.287Z,48096
2017-05-18T06:54:23.768Z,47904
2017-05-18T06:55:46.028Z,43040
2017-05-18T06:57:08.190Z,37152
2017-05-18T06:58:29.692Z,34144
2017-05-18T06:59:51.601Z,32416
2017-05-18T07:01:12.878Z,30496
2017-05-18T07:02:34.757Z,29824
2017-05-18T07:03:56.623Z,28704
2017-05-18T07:05:18.530Z,28736
2017-05-18T07:06:40.836Z,29216
2017-05-18T07:08:02.687Z,29888
2017-05-18T07:09:24.271Z,31680
2017-05-18T07:10:46.429Z,41760
2017-05-18T07:12:08.929Z,58496
2017-05-18T07:13:30.128Z,68704
2017-05-18T07:14:52.016Z,63872
2017-05-18T07:16:14.270Z,51680
2017-05-18T07:17:36.250Z,49184
2017-05-18T07:18:58.120Z,42720
2017-05-18T07:20:20.423Z,34144
2017-05-18T07:21:42.278Z,27584
2017-05-18T07:23:04.812Z,24864
2017-05-18T07:24:27.317Z,23392
2017-05-18T07:25:49.181Z,22784
2017-05-18T07:27:11.358Z,22752
2017-05-18T07:28:32.582Z,22528
2017-05-18T07:29:54.438Z,22144
2017-05-18T07:31:16.627Z,21728
2017-05-18T07:32:38.529Z,21408
2017-05-18T07:34:00.067Z,21504
2017-05-18T07:35:21.627Z,21472
2017-05-18T07:36:43.823Z,21216
2017-05-18T07:38:06.759Z,20896
2017-05-18T07:39:28.939Z,20000
2017-05-18T07:40:50.485Z,20128
2017-05-18T07:42:11.837Z,20416
2017-05-18T07:43:33.991Z,20224
2017-05-18T07:44:56.003Z,20192
2017-05-18T07:46:17.381Z,19328
2017-05-18T07:47:39.241Z,19008
2017-05-18T07:49:01.519Z,19744
2017-05-18T07:50:23.689Z,20640
2017-05-18T07:51:46.298Z,21792
2017-05-18T07:53:08.479Z,22880
2017-05-18T07:54:30.912Z,24096
2017-05-18T07:55:53.416Z,25888
2017-05-18T07:57:15.020Z,29248
2017-05-18T07:58:36.612Z,28576
2017-05-18T07:59:58.871Z,22720
2017-05-18T08:01:20.837Z,19840
2017-05-18T08:02:43.004Z,14732
2017-05-18T08:04:04.878Z,12324
2017-05-18T08:05:26.750Z,11744
2017-05-18T08:06:48.294Z,11564
2017-05-18T08:08:10.215Z,11496
2017-05-18T08:09:31.921Z,11380
2017-05-18T08:10:54.127Z,11364
2017-05-18T08:12:16.002Z,11424
2017-05-18T08:13:38.777Z,11408
2017-05-18T08:15:00.958Z,10976
2017-05-18T08:16:23.436Z,11000
2017-05-18T08:17:45.689Z,11288
2017-05-18T08:19:07.618Z,11148
2017-05-18T08:20:30.096Z,11388
2017-05-18T08:21:52.577Z,11476
2017-05-18T08:23:14.809Z,11512
2017-05-18T08:24:38.532Z,12004
2017-05-18T08:26:01.357Z,12380
2017-05-18T08:27:23.862Z,12252
2017-05-18T08:28:46.837Z,12220
2017-05-18T08:30:08.418Z,12104
2017-05-18T08:31:31.046Z,12276
2017-05-18T08:32:53.550Z,12172
2017-05-18T08:34:18.317Z,11988
2017-05-18T08:35:40.637Z,12240
2017-05-18T08:37:15.168Z,12396
2017-05-18T08:38:37.931Z,12668
2017-05-18T08:40:01.006Z,12236
2017-05-18T08:41:23.306Z,12484
2017-05-18T08:42:45.147Z,12980
2017-05-18T08:44:08.043Z,13268
2017-05-18T08:45:29.928Z,13960
2017-05-18T08:46:51.837Z,14184
2017-05-18T08:48:14.139Z,13908
2017-05-18T08:49:38.244Z,13516
2017-05-18T08:51:00.986Z,13140
2017-05-18T08:52:24.678Z,12480
2017-05-18T08:53:46.831Z,12452
2017-05-18T08:55:09.548Z,12096
2017-05-18T08:56:32.340Z,12340
2017-05-18T08:57:54.299Z,12560
2017-05-18T08:59:16.539Z,12872
2017-05-18T09:00:39.375Z,12852
2017-05-18T09:02:01.463Z,12808
2017-05-18T09:03:24.161Z,13080
2017-05-18T09:04:47.056Z,13112
2017-05-18T09:06:10.603Z,13240
2017-05-18T09:07:43.826Z,13652
2017-05-18T09:09:06.499Z,13920
2017-05-18T09:10:29.350Z,14152
2017-05-18T09:11:55.357Z,14312
2017-05-18T09:13:18.603Z,14212
2017-05-18T09:14:40.817Z,14528
2017-05-18T09:16:04.306Z,14852
2017-05-18T09:17:26.492Z,15480
2017-05-18T09:18:50.064Z,15800
2017-05-18T09:20:12.646Z,15764
2017-05-18T09:21:35.813Z,15680
2017-05-18T09:22:59.327Z,16696
2017-05-18T09:24:22.632Z,15772
2017-05-18T09:25:46.548Z,15536
2017-05-18T09:27:09.838Z,14276
2017-05-18T09:28:33.676Z,13976
2017-05-18T09:29:59.508Z,14272
2017-05-18T09:31:21.354Z,14624
2017-05-18T09:32:43.629Z,15884
2017-05-18T09:34:07.714Z,16992
2017-05-18T09:35:30.935Z,19680
2017-05-18T09:36:55.649Z,19936
2017-05-18T09:38:17.384Z,21920
2017-05-18T09:39:41.594Z,23296
2017-05-18T09:41:03.274Z,21728
2017-05-18T09:42:25.807Z,19904
2017-05-18T09:43:49.004Z,20704
2017-05-18T09:45:11.542Z,22816
2017-05-18T09:46:33.765Z,23552
2017-05-18T09:47:56.104Z,22592
2017-05-18T09:49:19.289Z,23072
2017-05-18T09:50:42.775Z,23584
2017-05-18T09:53:38.822Z,23232
2017-05-18T09:55:01.107Z,24128
2017-05-18T09:56:22.985Z,24992
2017-05-18T09:57:44.642Z,23840
2017-05-18T09:59:06.284Z,22592
2017-05-18T10:00:28.746Z,22176
2017-05-18T10:01:51.515Z,22720
2017-05-18T10:03:13.358Z,21664
2017-05-18T10:04:35.222Z,20672
2017-05-18T10:05:56.800Z,19808
2017-05-18T10:07:19.258Z,18400
2017-05-18T10:08:41.789Z,17120
2017-05-18T10:10:03.950Z,17312
2017-05-18T10:11:26.158Z,17152
2017-05-18T10:12:47.823Z,17472
2017-05-18T10:14:10.148Z,17536
2017-05-18T10:15:31.048Z,16800
2017-05-18T10:16:52.453Z,16416
2017-05-18T10:18:14.318Z,14748
2017-05-18T10:19:36.498Z,12928
2017-05-18T10:20:58.358Z,13320
2017-05-18T10:22:19.889Z,14568
2017-05-18T10:23:42.360Z,15808
2017-05-18T10:25:04.856Z,20160
2017-05-18T10:26:27.014Z,21248
2017-05-18T10:27:49.519Z,21024
2017-05-18T10:29:11.621Z,20256
2017-05-18T10:30:33.469Z,21920
2017-05-18T10:31:55.326Z,23264
2017-05-18T10:33:17.515Z,22560
2017-05-18T10:34:39.948Z,20992
2017-05-18T10:36:01.479Z,22048
2017-05-18T10:37:23.329Z,22688
2017-05-18T10:38:45.277Z,23744
2017-05-18T10:40:07.520Z,25504
2017-05-18T10:41:29.999Z,25024
2017-05-18T10:42:51.850Z,24800
2017-05-18T10:44:13.747Z,24128
2017-05-18T10:45:35.904Z,22400
2017-05-18T10:46:57.119Z,21536
2017-05-18T10:48:19.278Z,21952
2017-05-18T10:49:41.439Z,22016
2017-05-18T10:51:03.918Z,21664
2017-05-18T10:52:26.160Z,19840
2017-05-18T10:53:47.997Z,19392
2017-05-18T10:55:10.178Z,20608
2017-05-18T10:56:32.374Z,21728
2017-05-18T10:57:54.606Z,20768
2017-05-18T10:59:16.759Z,21088
2017-05-18T11:00:39.248Z,18976
2017-05-18T11:02:01.422Z,17504
2017-05-18T11:03:24.049Z,18112
2017-05-18T11:04:45.941Z,21344
2017-05-18T11:06:07.468Z,22976
2017-05-18T11:07:29.306Z,21760
2017-05-18T11:08:50.851Z,21024
2017-05-18T11:10:13.018Z,22720
2017-05-18T11:11:34.859Z,24480
2017-05-18T11:12:57.321Z,24160
2017-05-18T11:14:19.499Z,24288
2017-05-18T11:15:41.686Z,23264
2017-05-18T11:17:03.849Z,22624
2017-05-18T11:18:25.950Z,20736
2017-05-18T11:19:47.486Z,20416
2017-05-18T11:21:08.769Z,19072
2017-05-18T11:22:30.738Z,19680
2017-05-18T11:23:52.279Z,21984
2017-05-18T11:25:14.269Z,23136
2017-05-18T11:26:36.789Z,23264
2017-05-18T11:27:58.309Z,21600
2017-05-18T11:29:20.779Z,22240
2017-05-18T11:30:42.609Z,21600
2017-05-18T11:32:04.797Z,22112
2017-05-18T11:33:26.656Z,22112
2017-05-18T11:34:48.203Z,23520
2017-05-18T11:36:09.837Z,23264
2017-05-18T11:37:31.387Z,19328
2017-05-18T11:38:53.558Z,17568
2017-05-18T11:40:16.176Z,18336
2017-05-18T11:41:38.382Z,17344
2017-05-18T11:43:00.342Z,16992
2017-05-18T11:44:22.314Z,15296
2017-05-18T11:45:44.523Z,14688
2017-05-18T11:47:06.827Z,15076
2017-05-18T11:48:28.079Z,15376
2017-05-18T11:49:49.308Z,16112
2017-05-18T11:51:11.735Z,15764
2017-05-18T11:52:33.289Z,16064
2017-05-18T11:53:55.150Z,16240
2017-05-18T11:55:17.397Z,15580
2017-05-18T11:56:39.874Z,15000
2017-05-18T11:58:02.370Z,16192
2017-05-18T11:59:24.539Z,19840
2017-05-18T12:00:46.699Z,19392
2017-05-18T12:02:08.809Z,16972
2017-05-18T12:03:31.047Z,16088
2017-05-18T12:04:53.411Z,16352
2017-05-18T12:06:15.670Z,16320
2017-05-18T12:07:38.139Z,16804
2017-05-18T12:09:00.333Z,17256
2017-05-18T12:10:21.669Z,16164
2017-05-18T12:11:43.840Z,15540
2017-05-18T12:13:06.584Z,15092
2017-05-18T12:14:28.838Z,14260
2017-05-18T12:15:51.160Z,13972
2017-05-18T12:17:13.322Z,13508
2017-05-18T12:18:35.568Z,12756
2017-05-18T12:19:57.489Z,13120
2017-05-18T12:21:19.770Z,13868
2017-05-18T12:22:41.629Z,15076
2017-05-18T12:24:04.445Z,16420
2017-05-18T12:25:26.919Z,18944
2017-05-18T12:26:48.439Z,19392
2017-05-18T12:28:10.982Z,18400
2017-05-18T12:29:33.769Z,17888
2017-05-18T12:30:55.656Z,17632
2017-05-18T12:32:17.508Z,16876
2017-05-18T12:33:39.362Z,15800
2017-05-18T12:35:01.679Z,17184
2017-05-18T12:36:23.989Z,18080
2017-05-18T12:37:46.261Z,19872
2017-05-18T12:39:08.736Z,22112
2017-05-18T12:40:31.479Z,23488
2017-05-18T12:41:53.636Z,23424
2017-05-18T12:43:15.147Z,20832
2017-05-18T12:44:37.009Z,18496
2017-05-18T12:45:59.488Z,18016
2017-05-18T12:47:21.349Z,16832
2017-05-18T12:48:43.209Z,16896
2017-05-18T12:50:04.897Z,17248
2017-05-18T12:51:27.014Z,16608
2017-05-18T12:52:49.500Z,15892
2017-05-18T12:54:11.369Z,15900
2017-05-18T12:55:32.579Z,17792
2017-05-18T12:56:54.785Z,20192
2017-05-18T12:58:16.958Z,21760
2017-05-18T12:59:38.488Z,22720
2017-05-18T13:01:00.727Z,22784
2017-05-18T13:02:22.889Z,22304
2017-05-18T13:03:45.056Z,22624
2017-05-18T13:05:07.562Z,22400
2017-05-18T13:06:30.059Z,21856
2017-05-18T13:07:52.541Z,21696
2017-05-18T13:09:15.019Z,22528
2017-05-18T13:10:36.610Z,24224
2017-05-18T13:11:58.789Z,24704
2017-05-18T13:13:20.987Z,23872
2017-05-18T13:14:42.508Z,24480
2017-05-18T13:16:03.709Z,24576
2017-05-18T13:17:25.937Z,25760
2017-05-18T13:18:48.427Z,25856
2017-05-18T13:20:11.018Z,25632
2017-05-18T13:21:33.197Z,23968
2017-05-18T13:22:55.169Z,23008
2017-05-18T13:24:17.680Z,21792
2017-05-18T13:25:40.159Z,21760
2017-05-18T13:27:02.640Z,22720
2017-05-18T13:28:25.223Z,24224
2017-05-18T13:29:47.998Z,25760
2017-05-18T13:31:09.969Z,27136
2017-05-18T13:32:32.041Z,27776
2017-05-18T13:33:53.988Z,27136
2017-05-18T13:35:16.469Z,25760
2017-05-18T13:36:39.009Z,25216
2017-05-18T13:38:01.667Z,25664
2017-05-18T13:39:23.187Z,24832
2017-05-18T13:40:45.357Z,23712
2017-05-18T13:42:07.552Z,22656
2017-05-18T13:43:29.797Z,21376
2017-05-18T13:44:51.349Z,20064
2017-05-18T13:46:13.867Z,19072
2017-05-18T13:47:36.141Z,19232
2017-05-18T13:48:57.669Z,19648
2017-05-18T13:50:19.638Z,19904
2017-05-18T13:51:41.877Z,18880
2017-05-18T13:53:03.876Z,18400
2017-05-18T13:54:25.718Z,18336
2017-05-18T13:55:47.576Z,17888
2017-05-18T13:57:09.363Z,18656
2017-05-18T13:58:31.522Z,19744
2017-05-18T13:59:53.387Z,18560
2017-05-18T14:01:15.579Z,17216
2017-05-18T14:02:38.056Z,15124
2017-05-18T14:03:59.909Z,15360
2017-05-18T14:05:22.458Z,17152
2017-05-18T14:06:44.623Z,16736
2017-05-18T14:08:07.060Z,15572
2017-05-18T14:09:29.228Z,16928
2017-05-18T14:10:51.789Z,18464
2017-05-18T14:12:13.655Z,18656
2017-05-18T14:13:36.118Z,18464
2017-05-18T14:14:57.989Z,19168
2017-05-18T14:16:20.500Z,20704
2017-05-18T14:17:42.678Z,21280
2017-05-18T14:19:05.179Z,22144
2017-05-18T14:20:26.747Z,22432
2017-05-18T14:21:48.928Z,22912
2017-05-18T14:23:11.243Z,22912
2017-05-18T14:24:33.066Z,20608
2017-05-18T14:25:55.254Z,18784
2017-05-18T14:27:17.115Z,17696
2017-05-18T14:28:38.970Z,17440
2017-05-18T14:30:00.868Z,16672
2017-05-18T14:31:22.808Z,16128
2017-05-18T14:32:44.981Z,17120
2017-05-18T14:34:07.250Z,17888
2017-05-18T14:35:29.384Z,18688
2017-05-18T14:36:51.551Z,15560
2017-05-18T14:38:13.508Z,15016
2017-05-18T14:39:35.675Z,15644
2017-05-18T14:40:57.783Z,17504
2017-05-18T14:42:19.962Z,17024
2017-05-18T14:43:42.129Z,16576
2017-05-18T14:45:03.999Z,15728
2017-05-18T14:46:26.628Z,15040
2017-05-18T14:47:48.197Z,14944
2017-05-18T14:49:10.057Z,14768
2017-05-18T14:50:31.752Z,14784
2017-05-18T14:51:54.569Z,14976
2017-05-18T14:53:16.548Z,14124
2017-05-18T14:54:37.765Z,13644
2017-05-18T14:55:59.929Z,13936
2017-05-18T14:57:22.098Z,14384
2017-05-18T14:58:44.297Z,13912
2017-05-18T15:00:06.173Z,13648
2017-05-18T15:01:28.781Z,13508
2017-05-18T15:02:51.598Z,13420
2017-05-18T15:04:13.459Z,13056
2017-05-18T15:05:35.328Z,12540
2017-05-18T15:06:57.250Z,12340
2017-05-18T15:08:19.730Z,13180
2017-05-18T15:09:42.318Z,14120
2017-05-18T15:11:04.813Z,14000
2017-05-18T15:12:26.666Z,13448
2017-05-18T15:13:49.527Z,13196
2017-05-18T15:15:11.387Z,13440
2017-05-18T15:16:33.299Z,13444
2017-05-18T15:17:55.475Z,12952
2017-05-18T15:19:17.689Z,11752
2017-05-18T15:20:40.198Z,10788
2017-05-18T15:22:02.765Z,10252
2017-05-18T15:23:25.071Z,10308
2017-05-18T15:24:47.429Z,10424
2017-05-18T15:26:09.942Z,10460
2017-05-18T15:27:31.852Z,10644
2017-05-18T15:28:54.349Z,11092
2017-05-18T15:30:16.975Z,11456
2017-05-18T15:31:39.130Z,11508
2017-05-18T15:33:01.281Z,11872
2017-05-18T15:34:23.139Z,11904
2017-05-18T15:35:45.940Z,11516
2017-05-18T15:37:07.900Z,10716
2017-05-18T15:38:30.116Z,9168
2017-05-18T15:39:51.950Z,7788
2017-05-18T15:41:14.754Z,6808
2017-05-18T15:42:36.758Z,6104
2017-05-18T15:43:58.949Z,5564
2017-05-18T15:45:20.229Z,5264
2017-05-18T15:46:42.110Z,4976
2017-05-18T15:48:04.273Z,4632
2017-05-18T15:49:26.129Z,4332
2017-05-18T15:50:48.049Z,4116
2017-05-18T15:52:10.243Z,3956
2017-05-18T15:53:31.903Z,3780
2017-05-18T15:54:54.069Z,3588
2017-05-18T15:56:16.573Z,3420
2017-05-18T15:57:38.080Z,3316
2017-05-18T15:59:00.584Z,3284
2017-05-18T16:00:22.555Z,3300
2017-05-18T16:01:44.439Z,3352
2017-05-18T16:03:06.938Z,3404
2017-05-18T16:04:28.787Z,3480
2017-05-18T16:05:51.289Z,3524
2017-05-18T16:07:13.470Z,3496
2017-05-18T16:08:35.952Z,3452
2017-05-18T16:09:58.273Z,3420
2017-05-18T16:11:20.876Z,3388
2017-05-18T16:12:42.406Z,3312
2017-05-18T16:14:05.211Z,3220
2017-05-18T16:15:27.697Z,3168
2017-05-18T16:16:50.170Z,3124
2017-05-18T16:18:11.759Z,3076
2017-05-18T16:19:33.939Z,2988
2017-05-18T16:20:56.160Z,2908
2017-05-18T16:22:18.648Z,2864
2017-05-18T16:23:40.522Z,2864
2017-05-18T16:25:03.060Z,2892
2017-05-18T16:26:25.561Z,2900
2017-05-18T16:27:48.061Z,2944
2017-05-18T16:29:10.587Z,2972
2017-05-18T16:30:33.130Z,2992
2017-05-18T16:31:55.302Z,3044
2017-05-18T16:33:17.929Z,3204
2017-05-18T16:34:40.534Z,3372
2017-05-18T16:36:03.430Z,3572
2017-05-18T16:37:25.949Z,3724
2017-05-18T16:38:47.819Z,3752
2017-05-18T16:40:09.711Z,3672
2017-05-18T16:41:31.961Z,3572
2017-05-18T16:42:54.482Z,3476
2017-05-18T16:44:16.656Z,3428
2017-05-18T16:45:38.581Z,3456
2017-05-18T16:47:01.056Z,3496
2017-05-18T16:48:23.230Z,3608
2017-05-18T16:49:44.872Z,3800
2017-05-18T16:51:07.047Z,3984
2017-05-18T16:52:29.600Z,4084
2017-05-18T16:53:52.127Z,4272
2017-05-18T16:55:14.619Z,4452
2017-05-18T16:56:36.514Z,4704
2017-05-18T16:57:58.992Z,4664
2017-05-18T16:59:20.703Z,4552
2017-05-18T17:00:42.267Z,4440
2017-05-18T17:02:04.144Z,4284
2017-05-18T17:03:26.700Z,4152
2017-05-18T17:04:48.991Z,3988
2017-05-18T17:06:11.480Z,3600
2017-05-18T17:07:33.712Z,3108
2017-05-18T17:08:56.291Z,2624
2017-05-18T17:10:18.462Z,2196
2017-05-18T17:11:40.953Z,1892
2017-05-18T17:13:02.516Z,1716
2017-05-18T17:14:25.020Z,1624
2017-05-18T17:15:46.996Z,1536
2017-05-18T17:17:09.034Z,1416
2017-05-18T17:18:30.720Z,1296
2017-05-18T17:19:53.498Z,1232
2017-05-18T17:21:15.709Z,1240
2017-05-18T17:22:37.685Z,1320
2017-05-18T17:23:58.950Z,1404
2017-05-18T17:25:21.326Z,1480
2017-05-18T17:26:43.830Z,1560
2017-05-18T17:28:06.360Z,1664
2017-05-18T17:29:28.851Z,1848
2017-05-18T17:30:51.353Z,1992
2017-05-18T17:32:13.905Z,2084
2017-05-18T17:33:36.410Z,2188
2017-05-18T17:34:58.913Z,2264
2017-05-18T17:36:21.760Z,2276
2017-05-18T17:37:43.387Z,2236
2017-05-18T17:39:05.703Z,2244
2017-05-18T17:40:28.193Z,2236
2017-05-18T17:41:51.053Z,2280
2017-05-18T17:43:13.305Z,2400
2017-05-18T17:44:35.264Z,2516
2017-05-18T17:45:57.859Z,2676
2017-05-18T17:47:20.674Z,2736
2017-05-18T17:48:42.533Z,2748
2017-05-18T17:50:05.043Z,2688
2017-05-18T17:51:27.225Z,2680
2017-05-18T17:52:49.427Z,2704
2017-05-18T17:54:11.702Z,2564
2017-05-18T17:55:33.996Z,2396
2017-05-18T17:56:55.924Z,2308
2017-05-18T17:58:18.073Z,2236
2017-05-18T17:59:40.269Z,2156
2017-05-18T18:01:01.841Z,2032
2017-05-18T18:02:23.998Z,1940
2017-05-18T18:03:46.462Z,1876
2017-05-18T18:05:09.259Z,1924
2017-05-18T18:06:31.765Z,1976
2017-05-18T18:07:54.247Z,1948
2017-05-18T18:09:16.742Z,1964
2017-05-18T18:10:39.313Z,1884
2017-05-18T18:12:01.839Z,1756